Time;durP1;ratioP1;P1;durP2;ratioP2;P2;SDS_P1;SDS_P2;PMS_P1;PMS_P2;Temp;Humidity;BMP_temperature;BMP_pressure;BME280_temperature;BME280_humidity;BME280_pressure;Samples;Min_cycle;Max_cycle;Signal;HPM_P1;HPM_P2
2021/09/12 10:27:02;;;;;;;10.68;4.50;;;22.10;89.50;;;;;;5110493;27;20843;-66
2021/09/12 10:29:28;;;;;;;10.27;4.57;;;22.60;72.00;;;;;;5007853;28;20100;-67
2021/09/12 10:31:53;;;;;;;8.85;5.53;;;22.50;71.80;;;;;;5040692;28;20095;-66
2021/09/12 10:34:19;;;;;;;11.75;5.05;;;22.50;72.00;;;;;;5051344;28;20026;-67
2021/09/12 10:36:45;;;;;;;10.10;4.90;;;22.50;71.80;;;;;;5044813;28;20112;-66
2021/09/12 10:39:11;;;;;;;8.35;4.65;;;22.60;71.60;;;;;;5048489;28;20160;-66
2021/09/12 10:41:36;;;;;;;9.00;4.45;;;22.60;71.40;;;;;;5047361;28;20104;-66
2021/09/12 10:44:02;;;;;;;6.97;3.45;;;22.70;71.40;;;;;;5048305;28;20075;-66
2021/09/12 10:46:28;;;;;;;7.82;5.28;;;22.80;71.20;;;;;;5046748;28;20021;-65
2021/09/12 10:48:53;;;;;;;7.57;4.60;;;22.80;70.90;;;;;;5046736;28;20079;-66
2021/09/12 10:51:18;;;;;;;10.35;4.20;;;22.90;70.90;;;;;;5048577;28;20120;-66
2021/09/12 10:53:47;;;;;;;13.27;4.25;;;22.90;70.80;;;;;;5048371;28;20090;-65
2021/09/12 10:56:13;;;;;;;7.78;4.15;;;23.00;70.60;;;;;;5046632;28;20032;-66
2021/09/12 10:58:38;;;;;;;8.30;3.80;;;23.10;70.50;;;;;;5048592;28;20025;-68
2021/09/12 11:01:04;;;;;;;9.65;4.35;;;23.10;71.20;;;;;;5048236;28;20458;-66
2021/09/12 11:03:29;;;;;;;10.93;4.28;;;23.10;70.50;;;;;;5047159;28;20029;-67
2021/09/12 11:05:54;;;;;;;10.23;4.07;;;23.20;70.60;;;;;;5048170;28;20036;-67
2021/09/12 11:08:20;;;;;;;7.47;3.33;;;23.20;70.70;;;;;;5046642;28;20447;-68
2021/09/12 11:10:54;;;;;;;9.18;4.10;;;23.20;70.60;;;;;;5047603;28;20028;-67
2021/09/12 11:13:20;;;;;;;6.57;3.60;;;23.30;70.60;;;;;;5047757;28;20026;-68
2021/09/12 11:15:45;;;;;;;9.00;3.30;;;23.50;70.00;;;;;;5047026;28;20337;-68
2021/09/12 11:18:11;;;;;;;6.97;3.30;;;24.30;67.50;;;;;;5047358;28;20021;-65
2021/09/12 11:20:36;;;;;;;9.95;3.60;;;25.70;63.20;;;;;;5047531;28;20497;-66
2021/09/12 11:23:02;;;;;;;7.97;3.33;;;26.60;60.30;;;;;;4964466;28;55965;-67
2021/09/12 11:25:27;;;;;;;8.27;3.83;;;26.00;61.80;;;;;;5015801;28;20049;-69
2021/09/12 11:27:52;;;;;;;7.93;3.50;;;24.70;65.20;;;;;;5038755;28;20077;-72
2021/09/12 11:30:18;;;;;;;7.75;3.30;;;24.00;67.70;;;;;;5087173;28;20112;-72
2021/09/12 11:32:43;;;;;;;5.22;2.95;;;23.60;69.10;;;;;;5071785;28;20436;-71
2021/09/12 11:35:09;;;;;;;7.57;3.88;;;23.30;70.00;;;;;;5069292;28;20028;-73
2021/09/12 11:37:34;;;;;;;5.38;3.53;;;23.10;70.70;;;;;;5015706;28;20059;-73
2021/09/12 11:39:59;;;;;;;9.27;3.50;;;23.00;71.00;;;;;;4994238;28;64110;-69
2021/09/12 11:42:25;;;;;;;7.28;3.55;;;23.00;71.30;;;;;;5053532;28;20509;-70
2021/09/12 11:44:56;;;;;;;9.20;4.00;;;22.90;71.40;;;;;;5052790;28;20029;-67
2021/09/12 11:47:21;;;;;;;6.03;3.40;;;22.90;71.50;;;;;;5053955;28;20017;-67
2021/09/12 11:49:47;;;;;;;5.47;3.00;;;22.90;71.70;;;;;;5055197;28;20348;-73
2021/09/12 11:52:12;;;;;;;5.72;3.13;;;22.80;71.60;;;;;;5054979;28;20108;-66
2021/09/12 11:54:38;;;;;;;5.43;4.05;;;22.80;71.80;;;;;;5056603;28;20029;-67
2021/09/12 11:57:03;;;;;;;12.98;4.07;;;22.80;71.80;;;;;;5052987;28;20728;-66
2021/09/12 11:59:29;;;;;;;5.57;3.55;;;22.70;71.80;;;;;;5072680;28;20024;-72
2021/09/12 12:01:54;;;;;;;9.18;3.50;;;22.70;71.90;;;;;;5073166;28;20107;-73
2021/09/12 12:04:20;;;;;;;6.53;3.10;;;22.70;72.00;;;;;;5074238;28;20017;-67
2021/09/12 12:06:45;;;;;;;5.60;3.67;;;22.70;72.00;;;;;;5073852;28;20021;-71
2021/09/12 12:09:11;;;;;;;5.68;3.60;;;22.70;72.00;;;;;;5062685;28;20079;-67
2021/09/12 12:11:37;;;;;;;4.72;2.85;;;22.70;72.00;;;;;;5055101;28;20107;-67
2021/09/12 12:14:02;;;;;;;8.18;4.10;;;22.70;72.00;;;;;;5056231;28;20448;-67
2021/09/12 12:16:28;;;;;;;6.75;2.97;;;22.70;71.80;;;;;;5054364;28;20021;-68
2021/09/12 12:18:53;;;;;;;5.60;3.58;;;22.80;71.80;;;;;;5055774;28;20029;-67
2021/09/12 12:21:19;;;;;;;7.38;3.50;;;22.80;71.80;;;;;;5054887;28;20363;-67
2021/09/12 12:23:45;;;;;;;5.53;3.38;;;22.80;71.80;;;;;;5054944;28;20021;-68
2021/09/12 12:26:10;;;;;;;4.95;3.50;;;22.80;71.80;;;;;;5068302;28;20040;-67
2021/09/12 12:28:36;;;;;;;6.45;3.60;;;22.80;71.80;;;;;;5074925;28;20020;-67
2021/09/12 12:31:01;;;;;;;5.25;3.50;;;22.80;71.70;;;;;;5075247;28;20020;-67
2021/09/12 12:33:26;;;;;;;5.68;4.00;;;22.80;71.70;;;;;;5075552;28;20044;-67
2021/09/12 12:35:52;;;;;;;5.07;3.38;;;22.80;71.70;;;;;;5074380;28;20101;-67
2021/09/12 12:38:17;;;;;;;5.18;3.75;;;22.80;71.70;;;;;;5074812;28;20111;-67
2021/09/12 12:40:42;;;;;;;6.22;3.42;;;22.80;71.70;;;;;;5075652;28;20091;-67
2021/09/12 12:43:08;;;;;;;5.68;3.53;;;22.80;71.60;;;;;;5074539;28;20036;-68
2021/09/12 12:45:33;;;;;;;4.95;3.22;;;22.80;71.60;;;;;;5074634;28;20059;-68
2021/09/12 12:47:59;;;;;;;4.13;3.50;;;22.80;71.60;;;;;;5074038;28;20059;-68
2021/09/12 12:50:24;;;;;;;6.88;3.53;;;22.80;71.70;;;;;;5074182;28;20522;-68
2021/09/12 12:52:49;;;;;;;4.85;3.85;;;22.80;71.70;;;;;;5074725;28;20024;-68
2021/09/12 12:55:15;;;;;;;7.85;4.50;;;22.80;71.80;;;;;;5073826;28;20095;-66
2021/09/12 12:57:43;;;;;;;7.00;3.17;;;22.80;71.90;;;;;;5076728;28;20016;-66
2021/09/12 13:00:08;;;;;;;4.90;3.25;;;22.70;72.40;;;;;;5074626;28;20351;-66
2021/09/12 13:02:34;;;;;;;4.38;3.78;;;22.70;71.70;;;;;;5082206;28;20050;-66
2021/09/12 13:04:59;;;;;;;4.03;3.10;;;22.70;71.60;;;;;;5095136;28;20054;-67
2021/09/12 13:07:25;;;;;;;5.00;4.00;;;22.80;71.70;;;;;;5094747;28;20130;-68
2021/09/12 13:09:50;;;;;;;4.57;3.40;;;22.80;71.80;;;;;;5006940;28;20060;-65
2021/09/12 13:12:16;;;;;;;4.20;3.38;;;22.80;71.90;;;;;;5077626;28;20025;-65
2021/09/12 13:14:41;;;;;;;5.40;3.63;;;22.90;71.90;;;;;;5073892;28;20031;-63
2021/09/12 13:17:06;;;;;;;6.47;3.85;;;22.90;72.10;;;;;;5075711;28;20071;-67
2021/09/12 13:19:32;;;;;;;7.38;3.20;;;23.00;72.00;;;;;;5079526;28;20131;-70
2021/09/12 13:21:57;;;;;;;6.20;3.90;;;23.00;72.00;;;;;;5090339;28;20021;-73
2021/09/12 13:24:23;;;;;;;4.18;3.20;;;23.10;72.00;;;;;;5079564;28;20104;-66
2021/09/12 13:26:48;;;;;;;5.93;3.45;;;23.10;72.20;;;;;;5093074;28;20112;-74
2021/09/12 13:29:14;;;;;;;5.22;3.15;;;23.10;71.90;;;;;;5085052;28;20066;-66
2021/09/12 13:31:41;;;;;;;7.05;3.38;;;23.20;71.90;;;;;;5078093;28;20028;-69
2021/09/12 13:34:07;;;;;;;6.40;3.35;;;23.20;71.70;;;;;;5077821;28;20044;-67
2021/09/12 13:36:32;;;;;;;7.72;4.03;;;23.10;71.40;;;;;;5061319;28;20054;-69
2021/09/12 13:38:58;;;;;;;5.53;3.30;;;23.10;71.50;;;;;;5093468;28;20449;-71
2021/09/12 13:41:23;;;;;;;6.40;3.67;;;23.10;71.30;;;;;;5086544;28;20086;-66
2021/09/12 13:43:48;;;;;;;6.78;3.47;;;23.00;70.60;;;;;;5075125;28;20032;-66
2021/09/12 13:46:14;;;;;;;6.38;3.55;;;23.00;70.70;;;;;;5055980;28;20012;-70
2021/09/12 13:48:39;;;;;;;6.10;3.58;;;22.90;70.80;;;;;;5080693;28;20474;-66
2021/09/12 13:51:05;;;;;;;12.25;8.20;;;23.00;70.90;;;;;;5074095;28;20078;-70
2021/09/12 13:53:30;;;;;;;97.45;53.10;;;23.00;71.40;;;;;;5074295;28;20095;-68
2021/09/12 13:55:56;;;;;;;83.03;41.55;;;23.00;72.10;;;;;;5081483;28;20039;-66
2021/09/12 13:58:21;;;;;;;55.90;36.65;;;23.00;72.80;;;;;;5077015;28;20020;-71
2021/09/12 14:00:47;;;;;;;67.93;40.72;;;23.00;74.30;;;;;;5073319;28;20016;-70
2021/09/12 14:03:12;;;;;;;50.65;32.55;;;23.00;76.30;;;;;;5073442;28;20363;-70
2021/09/12 14:05:37;;;;;;;63.58;37.97;;;23.10;74.70;;;;;;5075054;28;20051;-71
2021/09/12 14:08:03;;;;;;;49.25;30.73;;;23.10;75.90;;;;;;5072806;28;20024;-71
2021/09/12 14:10:28;;;;;;;48.97;33.55;;;23.10;77.00;;;;;;5075843;28;20012;-74
2021/09/12 14:12:54;;;;;;;60.75;34.17;;;23.10;76.20;;;;;;5075003;28;20468;-73
2021/09/12 14:15:19;;;;;;;65.22;34.78;;;23.10;77.10;;;;;;5078951;28;20078;-72
2021/09/12 14:17:45;;;;;;;42.40;24.85;;;23.20;78.20;;;;;;5078981;28;20028;-73
2021/09/12 14:20:10;;;;;;;65.47;35.88;;;23.20;75.00;;;;;;5081571;28;20017;-75
2021/09/12 14:22:35;;;;;;;60.58;35.22;;;23.20;78.10;;;;;;5073726;28;20032;-67
2021/09/12 14:25:01;;;;;;;77.32;40.30;;;23.20;78.20;;;;;;5090811;28;20040;-69
2021/09/12 14:27:26;;;;;;;81.55;46.10;;;23.20;77.90;;;;;;5093674;28;20058;-67
2021/09/12 14:29:53;;;;;;;66.75;41.97;;;23.20;78.60;;;;;;5078018;28;20020;-73
2021/09/12 14:32:18;;;;;;;66.18;35.25;;;23.30;80.40;;;;;;5073515;28;20021;-74
2021/09/12 14:34:44;;;;;;;53.67;26.77;;;23.30;79.40;;;;;;5064656;28;20047;-72
2021/09/12 14:37:09;;;;;;;61.60;31.63;;;23.20;76.80;;;;;;5070598;28;20024;-77
2021/09/12 14:39:35;;;;;;;56.10;27.40;;;23.20;77.40;;;;;;5071235;28;20028;-70
2021/09/12 14:42:01;;;;;;;67.93;29.45;;;23.20;76.50;;;;;;5069852;28;20439;-72
2021/09/12 14:44:27;;;;;;;55.13;30.83;;;23.10;76.00;;;;;;5073439;28;20506;-69
2021/09/12 14:46:52;;;;;;;70.20;32.83;;;23.20;77.50;;;;;;5055230;28;20115;-72
2021/09/12 14:49:18;;;;;;;48.20;22.80;;;23.20;77.00;;;;;;5069666;28;20092;-66
2021/09/12 14:51:43;;;;;;;42.42;21.13;;;23.20;76.40;;;;;;5072804;28;20017;-72
2021/09/12 14:54:08;;;;;;;63.20;29.17;;;23.20;75.70;;;;;;5071911;28;20105;-70
2021/09/12 14:56:34;;;;;;;58.15;28.33;;;23.20;75.20;;;;;;5071267;28;20032;-73
2021/09/12 14:59:01;;;;;;;49.22;22.27;;;23.20;75.60;;;;;;5073535;28;20091;-74
2021/09/12 15:01:27;;;;;;;66.63;30.08;;;23.10;73.80;;;;;;5054121;28;20032;-74
2021/09/12 15:03:52;;;;;;;60.65;27.30;;;23.20;77.50;;;;;;5074128;28;20024;-72
2021/09/12 15:06:18;;;;;;;60.92;26.55;;;23.20;77.60;;;;;;5073677;28;20020;-72
2021/09/12 15:08:44;;;;;;;51.10;22.17;;;23.20;76.60;;;;;;5072869;28;20363;-68
2021/09/12 15:11:09;;;;;;;70.97;35.63;;;23.20;75.20;;;;;;5073818;28;20060;-67
2021/09/12 15:13:34;;;;;;;62.78;29.65;;;23.20;78.10;;;;;;5077445;28;20025;-73
2021/09/12 15:16:00;;;;;;;63.08;27.33;;;23.20;77.40;;;;;;5075626;28;20032;-72
2021/09/12 15:18:25;;;;;;;65.30;30.00;;;23.20;76.90;;;;;;5076908;28;20016;-74
2021/09/12 15:20:51;;;;;;;59.13;26.63;;;23.20;77.10;;;;;;5076368;28;20039;-73
2021/09/12 15:23:16;;;;;;;59.78;25.60;;;23.20;76.80;;;;;;5075869;28;20031;-73
2021/09/12 15:25:42;;;;;;;56.00;25.65;;;23.20;76.60;;;;;;5056167;28;20487;-71
2021/09/12 15:28:07;;;;;;;50.33;23.83;;;23.20;76.30;;;;;;5057921;28;20066;-72
2021/09/12 15:30:33;;;;;;;50.70;22.48;;;23.20;75.90;;;;;;5076076;28;20099;-72
2021/09/12 15:32:58;;;;;;;42.58;19.70;;;23.20;75.80;;;;;;5075847;28;20025;-72
2021/09/12 15:35:23;;;;;;;42.63;22.38;;;23.20;75.50;;;;;;5075211;28;20056;-73
2021/09/12 15:37:49;;;;;;;40.97;20.75;;;23.10;75.30;;;;;;5076325;28;20035;-77
2021/09/12 15:40:14;;;;;;;37.13;20.20;;;23.10;75.10;;;;;;5076072;28;20508;-75
2021/09/12 15:42:40;;;;;;;38.17;17.92;;;23.10;74.90;;;;;;5075436;28;20354;-73
2021/09/12 15:45:05;;;;;;;38.92;18.02;;;23.10;74.80;;;;;;5058104;28;20025;-73
2021/09/12 15:47:31;;;;;;;34.88;17.45;;;23.10;74.70;;;;;;5076209;28;20024;-73
2021/09/12 15:49:57;;;;;;;34.83;18.60;;;23.10;74.50;;;;;;5072523;28;20012;-73
2021/09/12 15:52:22;;;;;;;36.45;17.63;;;23.10;74.40;;;;;;5075949;28;20081;-72
2021/09/12 15:54:48;;;;;;;30.88;16.20;;;23.10;74.90;;;;;;5057212;28;20460;-72
2021/09/12 15:57:13;;;;;;;28.00;16.75;;;23.10;74.10;;;;;;5075364;28;20013;-76
2021/09/12 15:59:39;;;;;;;30.77;16.60;;;23.10;74.10;;;;;;5075927;28;20016;-73
2021/09/12 16:02:04;;;;;;;26.55;14.70;;;23.10;74.20;;;;;;5053310;28;20189;-70
2021/09/12 16:04:30;;;;;;;24.52;15.10;;;23.10;73.90;;;;;;5075752;28;20044;-73
2021/09/12 16:06:55;;;;;;;31.63;15.02;;;23.00;73.80;;;;;;5075299;28;20028;-71
2021/09/12 16:09:22;;;;;;;31.17;14.55;;;23.00;73.80;;;;;;5074730;28;20009;-70
2021/09/12 16:11:47;;;;;;;27.33;15.13;;;23.00;73.70;;;;;;5075971;28;20016;-75
2021/09/12 16:14:12;;;;;;;23.95;13.10;;;23.00;73.70;;;;;;5075712;28;20467;-72
2021/09/12 16:16:38;;;;;;;26.35;13.30;;;23.00;73.70;;;;;;5074423;28;20090;-73
2021/09/12 16:19:03;;;;;;;27.35;12.73;;;23.00;73.50;;;;;;5075655;28;20108;-75
2021/09/12 16:21:29;;;;;;;25.33;13.05;;;23.00;73.50;;;;;;5074390;28;20451;-74
2021/09/12 16:23:54;;;;;;;22.92;12.88;;;23.00;73.50;;;;;;5057409;28;20020;-72
2021/09/12 16:26:20;;;;;;;24.42;11.85;;;23.00;73.40;;;;;;5063540;28;20132;-69
2021/09/12 16:28:45;;;;;;;23.33;13.50;;;23.00;73.40;;;;;;5055005;28;20021;-67
2021/09/12 16:31:11;;;;;;;25.48;12.95;;;23.00;73.40;;;;;;5071748;28;20112;-71
2021/09/12 16:33:36;;;;;;;23.58;12.15;;;23.00;73.20;;;;;;5056071;28;20036;-67
2021/09/12 16:36:01;;;;;;;18.95;10.98;;;23.00;73.30;;;;;;5055554;28;20055;-64
2021/09/12 16:38:27;;;;;;;23.80;11.45;;;23.00;73.90;;;;;;5055835;28;20024;-66
2021/09/12 16:40:53;;;;;;;18.70;10.35;;;23.10;72.70;;;;;;5064737;28;20350;-64
2021/09/12 16:43:22;;;;;;;20.05;11.43;;;23.10;72.60;;;;;;5075506;28;20028;-66
2021/09/12 16:46:17;;;;;;;21.90;11.13;;;23.10;72.70;;;;;;5071711;28;20024;-70
2021/09/12 16:48:33;;;;;;;22.77;11.10;;;23.10;72.60;;;;;;5073418;28;20119;-70
2021/09/12 16:50:59;;;;;;;19.92;10.15;;;23.10;72.60;;;;;;5075077;28;20044;-66
2021/09/12 16:53:24;;;;;;;18.45;11.35;;;23.10;72.60;;;;;;5074317;28;20443;-64
2021/09/12 16:55:50;;;;;;;15.55;9.57;;;23.10;72.60;;;;;;5074367;28;20503;-68
2021/09/12 16:58:15;;;;;;;17.20;9.77;;;23.10;72.60;;;;;;5074255;28;20041;-64
2021/09/12 17:00:40;;;;;;;15.70;9.95;;;23.10;72.50;;;;;;5057110;28;20044;-67
2021/09/12 17:03:06;;;;;;;20.45;10.10;;;23.10;72.50;;;;;;5072122;28;20056;-63
2021/09/12 17:05:31;;;;;;;16.13;8.90;;;23.10;72.50;;;;;;5072528;28;20038;-69
2021/09/12 17:07:56;;;;;;;15.65;8.70;;;23.10;72.50;;;;;;5073188;28;20035;-68
2021/09/12 17:10:22;;;;;;;14.95;9.63;;;23.10;72.50;;;;;;5072315;28;20028;-67
2021/09/12 17:12:48;;;;;;;12.70;8.95;;;23.10;72.50;;;;;;5073301;28;20024;-68
2021/09/12 17:15:14;;;;;;;13.95;8.50;;;23.10;72.50;;;;;;5071895;28;20028;-65
2021/09/12 17:17:39;;;;;;;14.90;8.55;;;23.00;72.40;;;;;;5072908;28;20025;-66
2021/09/12 17:20:05;;;;;;;14.52;8.20;;;23.00;72.40;;;;;;5073207;28;20039;-67
2021/09/12 17:22:30;;;;;;;16.23;8.93;;;23.00;72.50;;;;;;5072110;28;20416;-69
2021/09/12 17:24:56;;;;;;;13.25;7.63;;;23.00;72.50;;;;;;5072780;28;20032;-66
2021/09/12 17:27:21;;;;;;;13.13;7.43;;;23.00;72.50;;;;;;5072457;28;20021;-66
2021/09/12 17:29:47;;;;;;;10.02;7.13;;;23.00;72.50;;;;;;5070919;28;20024;-66
2021/09/12 17:32:12;;;;;;;10.93;7.18;;;22.90;72.50;;;;;;5072056;28;20351;-68
2021/09/12 17:34:38;;;;;;;10.80;7.38;;;22.90;72.50;;;;;;5070834;28;20037;-67
2021/09/12 17:37:03;;;;;;;11.23;6.85;;;22.90;72.60;;;;;;5071625;28;20024;-65
2021/09/12 17:39:29;;;;;;;9.73;6.30;;;22.90;72.60;;;;;;5072503;28;20039;-68
2021/09/12 17:41:55;;;;;;;12.55;7.25;;;22.90;72.60;;;;;;5071778;28;20082;-65
2021/09/12 17:44:20;;;;;;;12.77;7.03;;;22.80;72.60;;;;;;5054735;28;20128;-69
2021/09/12 17:46:46;;;;;;;9.50;6.30;;;22.80;72.60;;;;;;5071254;28;20103;-64
2021/09/12 17:49:11;;;;;;;9.02;6.25;;;22.80;72.70;;;;;;5053106;28;20024;-68
2021/09/12 17:51:36;;;;;;;9.20;6.18;;;22.80;72.70;;;;;;5071500;28;20024;-65
2021/09/12 17:54:02;;;;;;;11.70;7.25;;;22.70;72.60;;;;;;5071862;28;20127;-67
2021/09/12 17:56:27;;;;;;;7.63;5.80;;;22.70;72.70;;;;;;5070488;28;20021;-68
2021/09/12 17:58:53;;;;;;;7.32;5.22;;;22.70;72.90;;;;;;5071525;28;20470;-68
2021/09/12 18:01:18;;;;;;;12.15;6.60;;;22.70;73.00;;;;;;5071736;28;20085;-66
2021/09/12 18:03:44;;;;;;;9.07;5.85;;;22.70;73.10;;;;;;5067593;28;20059;-66
2021/09/12 18:06:11;;;;;;;10.18;5.90;;;22.60;73.10;;;;;;5071323;28;20020;-68
2021/09/12 18:08:37;;;;;;;9.73;6.18;;;22.60;73.10;;;;;;5070630;28;20032;-65
2021/09/12 18:11:02;;;;;;;10.57;6.45;;;22.60;73.40;;;;;;5071100;28;20032;-65
2021/09/12 18:13:28;;;;;;;8.50;5.32;;;22.60;73.30;;;;;;5071574;28;20095;-67
2021/09/12 18:15:54;;;;;;;7.53;5.70;;;22.50;73.30;;;;;;5070341;28;20024;-68
2021/09/12 18:18:20;;;;;;;7.68;5.63;;;22.50;73.40;;;;;;5068684;28;20031;-67
2021/09/12 18:20:45;;;;;;;9.38;6.93;;;22.40;73.40;;;;;;5071607;28;20020;-70
2021/09/12 18:23:11;;;;;;;10.20;6.15;;;22.50;73.40;;;;;;5070356;28;20101;-65
2021/09/12 18:25:36;;;;;;;8.75;5.93;;;22.40;73.40;;;;;;5070868;28;21064;-68
2021/09/12 18:28:02;;;;;;;11.00;4.78;;;22.40;73.50;;;;;;5066986;28;20021;-67
2021/09/12 18:30:27;;;;;;;8.60;5.18;;;22.40;73.70;;;;;;5071272;28;20115;-67
2021/09/12 18:32:53;;;;;;;6.88;4.93;;;22.30;73.70;;;;;;5071136;28;20021;-70
2021/09/12 18:35:18;;;;;;;7.03;5.00;;;22.40;73.80;;;;;;5068501;28;20093;-68
2021/09/12 18:37:43;;;;;;;5.30;4.78;;;22.30;73.80;;;;;;5070740;28;20066;-68
2021/09/12 18:40:09;;;;;;;11.02;5.57;;;22.30;74.60;;;;;;5070626;28;20020;-69
2021/09/12 18:42:35;;;;;;;7.70;4.38;;;22.30;74.00;;;;;;5052612;28;20024;-65
2021/09/12 18:45:01;;;;;;;7.95;4.90;;;22.30;73.90;;;;;;5071126;28;20036;-68
2021/09/12 18:47:26;;;;;;;7.07;4.55;;;22.30;73.90;;;;;;5073299;28;20056;-69
2021/09/12 18:49:51;;;;;;;6.80;5.15;;;22.20;73.90;;;;;;5075504;28;20433;-68
2021/09/12 18:52:17;;;;;;;8.35;4.75;;;22.30;73.90;;;;;;5075475;28;20025;-70
2021/09/12 18:54:42;;;;;;;6.78;5.05;;;22.20;73.90;;;;;;5075135;28;20101;-66
2021/09/12 18:57:08;;;;;;;8.60;5.05;;;22.20;74.10;;;;;;5074568;28;20422;-65
2021/09/12 18:59:33;;;;;;;7.47;4.70;;;22.20;74.10;;;;;;5074505;28;20024;-71
2021/09/12 19:02:02;;;;;;;7.53;4.55;;;22.20;74.20;;;;;;5073468;28;20036;-65
2021/09/12 19:04:27;;;;;;;8.63;5.72;;;22.20;74.10;;;;;;5073408;28;20666;-66
2021/09/12 19:06:53;;;;;;;8.52;5.68;;;22.20;74.20;;;;;;5074049;28;20047;-69
2021/09/12 19:09:18;;;;;;;8.80;5.30;;;22.10;74.10;;;;;;5074074;28;20021;-69
2021/09/12 19:11:46;;;;;;;7.10;5.03;;;22.20;74.20;;;;;;5074752;28;20559;-69
2021/09/12 19:14:12;;;;;;;10.95;5.38;;;22.10;74.10;;;;;;5074904;28;20012;-72
2021/09/12 19:16:37;;;;;;;9.80;5.28;;;22.10;74.30;;;;;;5073497;28;20025;-71
2021/09/12 19:19:03;;;;;;;9.43;6.07;;;22.10;74.30;;;;;;5074779;28;20037;-70
2021/09/12 19:21:28;;;;;;;6.72;5.38;;;22.10;74.30;;;;;;5055994;28;20028;-66
2021/09/12 19:23:53;;;;;;;7.47;5.55;;;22.10;74.40;;;;;;5074236;28;20037;-68
2021/09/12 19:26:19;;;;;;;7.88;5.82;;;22.10;74.30;;;;;;5074008;28;20044;-70
2021/09/12 19:28:44;;;;;;;7.40;5.45;;;22.10;74.40;;;;;;5073161;28;20409;-70
2021/09/12 19:31:10;;;;;;;8.75;5.75;;;22.10;74.50;;;;;;5074565;28;20401;-66
2021/09/12 19:33:35;;;;;;;8.18;5.57;;;22.10;74.40;;;;;;5074477;28;20054;-72
2021/09/12 19:36:03;;;;;;;6.70;5.85;;;22.10;74.40;;;;;;5071597;28;20035;-70
2021/09/12 19:38:28;;;;;;;7.43;5.50;;;22.00;74.50;;;;;;5074069;28;20093;-67
2021/09/12 19:40:54;;;;;;;9.38;6.20;;;22.00;74.50;;;;;;5074093;28;20455;-69
2021/09/12 19:43:19;;;;;;;9.98;6.88;;;22.00;74.50;;;;;;5055742;28;20441;-70
2021/09/12 19:45:44;;;;;;;7.13;5.53;;;22.00;74.50;;;;;;5056458;28;20428;-68
2021/09/12 19:48:10;;;;;;;7.63;6.10;;;22.00;74.40;;;;;;5072855;28;20024;-71
2021/09/12 19:50:35;;;;;;;7.53;6.38;;;22.00;74.40;;;;;;5074141;28;20020;-67
2021/09/12 19:53:00;;;;;;;7.50;5.95;;;22.00;74.50;;;;;;5074035;28;20443;-68
2021/09/12 19:55:27;;;;;;;7.18;5.60;;;21.90;74.40;;;;;;5073026;28;20051;-69
2021/09/12 19:57:53;;;;;;;9.10;6.43;;;22.00;74.50;;;;;;5073423;28;20021;-66
2021/09/12 20:00:18;;;;;;;6.80;5.13;;;22.00;74.60;;;;;;5074020;28;20047;-69
2021/09/12 20:02:48;;;;;;;7.22;5.65;;;21.90;74.50;;;;;;5073100;28;20225;-69
2021/09/12 20:05:13;;;;;;;7.57;6.20;;;21.90;74.50;;;;;;5072510;28;20074;-67
2021/09/12 20:07:39;;;;;;;6.50;5.68;;;21.90;74.50;;;;;;5073502;28;20020;-68
2021/09/12 20:10:04;;;;;;;8.32;6.57;;;21.90;74.60;;;;;;5072779;28;20710;-67
2021/09/12 20:12:30;;;;;;;9.65;6.00;;;21.90;74.50;;;;;;5074079;28;20028;-70
2021/09/12 20:14:55;;;;;;;8.52;6.05;;;21.90;74.70;;;;;;4934840;28;20081;-67
